createdAt,value
2023-02-19T00:01:24.432Z,2.40
2023-02-19T00:03:52.803Z,2.67
2023-02-19T00:06:19.661Z,2.10
2023-02-19T00:08:46.424Z,2.58
2023-02-19T00:11:15.270Z,3.30
2023-02-19T00:13:43.259Z,2.75
2023-02-19T00:16:14.701Z,3.42
2023-02-19T00:18:41.630Z,3.35
2023-02-19T00:21:09.102Z,2.90
2023-02-19T00:23:36.181Z,3.05
2023-02-19T00:26:17.673Z,2.58
2023-02-19T00:28:45.275Z,2.60
2023-02-19T00:31:23.552Z,2.40
2023-02-19T00:33:52.289Z,2.70
2023-02-19T00:36:19.093Z,2.38
2023-02-19T00:38:45.915Z,3.05
2023-02-19T00:41:22.199Z,2.80
2023-02-19T00:44:02.661Z,2.92
2023-02-19T00:46:37.307Z,3.05
2023-02-19T00:49:04.911Z,3.22
2023-02-19T00:51:33.623Z,2.92
2023-02-19T00:54:00.417Z,2.92
2023-02-19T00:56:27.173Z,3.50
2023-02-19T00:58:53.895Z,3.20
2023-02-19T01:01:20.967Z,3.25
2023-02-19T01:03:47.793Z,2.58
2023-02-19T01:06:16.014Z,2.97
2023-02-19T01:08:43.015Z,3.20
2023-02-19T01:11:10.103Z,3.40
2023-02-19T01:13:37.050Z,4.30
2023-02-19T01:16:07.561Z,3.72
2023-02-19T01:18:34.457Z,3.95
2023-02-19T01:21:05.459Z,3.95
2023-02-19T01:23:32.180Z,3.30
2023-02-19T01:25:58.824Z,2.88
2023-02-19T01:28:25.418Z,2.60
2023-02-19T01:30:52.109Z,3.20
2023-02-19T01:33:18.780Z,3.30
2023-02-19T01:35:45.537Z,3.83
2023-02-19T01:38:12.204Z,4.30
2023-02-19T01:40:38.795Z,5.75
2023-02-19T01:43:06.601Z,3.95
2023-02-19T01:45:34.616Z,3.30
2023-02-19T01:48:11.864Z,3.42
2023-02-19T01:50:46.476Z,4.22
2023-02-19T01:53:13.705Z,3.58
2023-02-19T01:55:40.413Z,2.90
2023-02-19T01:58:07.084Z,3.28
2023-02-19T02:00:33.879Z,3.97
2023-02-19T02:03:00.550Z,4.10
2023-02-19T02:05:42.422Z,3.50
2023-02-19T02:08:27.624Z,3.05
2023-02-19T02:10:54.319Z,2.17
2023-02-19T02:13:21.015Z,2.72
2023-02-19T02:15:51.162Z,2.60
2023-02-19T02:18:49.114Z,3.17
2023-02-19T02:21:48.082Z,2.75
2023-02-19T02:24:20.469Z,3.03
2023-02-19T02:27:12.729Z,2.78
2023-02-19T02:29:45.507Z,3.65
2023-02-19T02:32:14.363Z,3.47
2023-02-19T02:34:54.128Z,2.47
2023-02-19T02:37:20.902Z,2.60
2023-02-19T02:39:47.590Z,2.55
2023-02-19T02:42:29.552Z,2.53
2023-02-19T02:45:15.762Z,3.08
2023-02-19T02:47:53.325Z,2.97
2023-02-19T02:50:47.262Z,2.50
2023-02-19T02:53:37.029Z,2.37
2023-02-19T02:56:03.830Z,2.50
2023-02-19T02:58:30.729Z,2.95
2023-02-19T03:01:27.773Z,3.00
2023-02-19T03:04:01.418Z,3.28
2023-02-19T03:06:29.962Z,3.22
2023-02-19T03:09:08.721Z,3.42
2023-02-19T03:12:07.666Z,3.42
2023-02-19T03:14:56.795Z,3.30
2023-02-19T03:18:06.695Z,2.97
2023-02-19T03:20:34.697Z,3.35
2023-02-19T03:23:01.412Z,2.90
2023-02-19T03:25:50.777Z,2.55
2023-02-19T03:28:18.146Z,3.95
2023-02-19T03:30:50.853Z,3.75
2023-02-19T03:33:19.858Z,3.47
2023-02-19T03:36:05.445Z,4.55
2023-02-19T03:38:44.943Z,4.15
2023-02-19T03:41:26.593Z,5.82
2023-02-19T03:43:57.999Z,4.75
2023-02-19T03:46:39.117Z,4.18
2023-02-19T03:49:15.794Z,2.25
2023-02-19T03:51:45.086Z,2.70
2023-02-19T03:54:41.537Z,2.10
2023-02-19T03:57:30.205Z,1.35
2023-02-19T04:00:27.368Z,2.20
2023-02-19T04:02:55.184Z,1.40
2023-02-19T04:05:23.237Z,2.35
2023-02-19T04:07:50.924Z,3.83
2023-02-19T04:10:17.796Z,2.88
2023-02-19T04:12:48.337Z,2.47
2023-02-19T04:15:17.757Z,3.03
2023-02-19T04:17:47.545Z,2.05
2023-02-19T04:20:14.277Z,3.63
2023-02-19T04:22:40.993Z,3.75
2023-02-19T04:25:07.896Z,3.63
2023-02-19T04:27:38.537Z,4.05
2023-02-19T04:30:06.506Z,5.72
2023-02-19T04:32:33.262Z,3.40
2023-02-19T04:34:59.906Z,4.05
2023-02-19T04:37:26.569Z,3.53
2023-02-19T04:39:53.355Z,3.40
2023-02-19T04:42:19.933Z,2.83
2023-02-19T04:44:46.575Z,2.75
2023-02-19T04:47:13.357Z,3.13
2023-02-19T04:49:40.093Z,4.90
2023-02-19T04:52:06.708Z,7.72
2023-02-19T04:54:33.509Z,4.20
2023-02-19T04:57:00.138Z,4.82
2023-02-19T04:59:26.788Z,4.40
2023-02-19T05:01:53.568Z,4.03
2023-02-19T05:04:20.220Z,4.75
2023-02-19T05:06:46.941Z,3.33
2023-02-19T05:09:13.683Z,11.57
2023-02-19T05:11:40.414Z,11.38
2023-02-19T05:14:07.149Z,9.63
2023-02-19T05:16:33.805Z,7.53
2023-02-19T05:19:00.557Z,6.78
2023-02-19T05:21:27.311Z,7.35
2023-02-19T05:23:54.150Z,6.97
2023-02-19T05:26:22.026Z,7.40
2023-02-19T05:28:50.489Z,6.25
2023-02-19T05:31:17.462Z,6.13
2023-02-19T05:33:45.719Z,5.50
2023-02-19T05:36:13.200Z,6.38
2023-02-19T05:38:40.474Z,6.95
2023-02-19T05:41:13.171Z,15.55
2023-02-19T05:43:40.192Z,8.68
2023-02-19T05:46:07.037Z,7.65
2023-02-19T05:48:33.969Z,8.70
2023-02-19T05:51:09.240Z,9.45
2023-02-19T05:53:36.276Z,8.10
